Time;durP1;ratioP1;P1;durP2;ratioP2;P2;SDS_P1;SDS_P2;PMS_P1;PMS_P2;Temp;Humidity;BMP_temperature;BMP_pressure;BME280_temperature;BME280_humidity;BME280_pressure;Samples;Min_cycle;Max_cycle;Signal;HPM_P1;HPM_P2
2023/02/23 00:01:09;;;;;;;;;;;;;;;9.71;nan;100184.88;4970195;28;19917;-83
2023/02/23 00:03:35;;;;;;;;;;;;;;;9.69;nan;100186.03;4987295;28;19918;-84
2023/02/23 00:06:02;;;;;;;;;;;;;;;9.68;nan;100187.03;4992513;28;19922;-83
2023/02/23 00:08:27;;;;;;;;;;;;;;;9.68;nan;100187.03;4986849;28;19926;-81
2023/02/23 00:10:57;;;;;;;;;;;;;;;9.70;nan;100182.38;4976060;28;20008;-84
2023/02/23 00:13:22;;;;;;;;;;;;;;;9.66;nan;100179.25;4988907;28;19921;-81
2023/02/23 00:15:47;;;;;;;;;;;;;;;9.64;nan;100177.75;4993525;28;19928;-82
2023/02/23 00:18:13;;;;;;;;;;;;;;;9.60;nan;100184.31;4976614;28;20011;-82
2023/02/23 00:20:43;;;;;;;;;;;;;;;9.57;nan;100178.34;4972260;28;19918;-82
2023/02/23 00:23:08;;;;;;;;;;;;;;;9.57;nan;100177.53;4992189;28;20406;-82
2023/02/23 00:25:35;;;;;;;;;;;;;;;9.55;nan;100177.66;4991855;28;19918;-82
2023/02/23 00:28:03;;;;;;;;;;;;;;;9.55;nan;100174.19;4991091;28;19927;-82
2023/02/23 00:30:28;;;;;;;;;;;;;;;9.55;nan;100182.13;4989328;28;19918;-82
2023/02/23 00:32:54;;;;;;;;;;;;;;;9.55;nan;100182.13;4993907;28;20331;-83
2023/02/23 00:35:19;;;;;;;;;;;;;;;9.56;nan;100174.06;4974435;28;20192;-83
2023/02/23 00:37:45;;;;;;;;;;;;;;;9.57;nan;100186.25;4990155;28;19914;-83
2023/02/23 00:40:15;;;;;;;;;;;;;;;9.58;nan;100179.16;4996638;28;19949;-83
2023/02/23 00:42:40;;;;;;;;;;;;;;;9.60;nan;100182.47;4996790;28;20205;-83
2023/02/23 00:45:10;;;;;;;;;;;;;;;9.57;nan;100178.34;4993604;28;19924;-83
2023/02/23 00:47:35;;;;;;;;;;;;;;;9.54;nan;100180.47;4976394;28;19918;-83
2023/02/23 00:50:01;;;;;;;;;;;;;;;9.53;nan;100179.66;4991951;28;19980;-83
2023/02/23 00:52:26;;;;;;;;;;;;;;;9.52;nan;100180.63;4991241;28;20008;-83
2023/02/23 00:54:51;;;;;;;;;;;;;;;9.52;nan;100183.25;4988887;28;19925;-84
2023/02/23 00:57:16;;;;;;;;;;;;;;;9.53;nan;100177.00;4973732;28;20222;-83
2023/02/23 00:59:41;;;;;;;;;;;;;;;9.55;nan;100172.38;4991739;28;19917;-83
2023/02/23 01:02:07;;;;;;;;;;;;;;;9.55;nan;100172.38;4990875;28;20391;-84
2023/02/23 01:04:32;;;;;;;;;;;;;;;9.56;nan;100181.97;4977877;28;20160;-83
2023/02/23 01:06:57;;;;;;;;;;;;;;;9.56;nan;100179.34;4993920;28;20577;-83
2023/02/23 01:09:27;;;;;;;;;;;;;;;9.56;nan;100176.69;4970201;28;20375;-83
2023/02/23 01:11:52;;;;;;;;;;;;;;;9.56;nan;100173.25;4975931;28;19926;-83
2023/02/23 01:14:17;;;;;;;;;;;;;;;9.56;nan;100170.59;4992689;28;20350;-83
2023/02/23 01:16:43;;;;;;;;;;;;;;;9.56;nan;100171.41;4973043;28;19976;-82
2023/02/23 01:19:08;;;;;;;;;;;;;;;9.58;nan;100171.25;4983320;28;19925;-82
2023/02/23 01:21:36;;;;;;;;;;;;;;;9.58;nan;100176.53;4970982;28;20016;-82
2023/02/23 01:24:02;;;;;;;;;;;;;;;9.56;nan;100174.06;4992863;28;20105;-81
2023/02/23 01:26:29;;;;;;;;;;;;;;;9.56;nan;100173.25;4976078;28;19968;-82
2023/02/23 01:28:59;;;;;;;;;;;;;;;9.55;nan;100169.75;4976046;28;19947;-82
2023/02/23 01:31:25;;;;;;;;;;;;;;;9.53;nan;100171.72;4984881;28;19956;-82
2023/02/23 01:33:54;;;;;;;;;;;;;;;9.53;nan;100176.16;4989927;28;19917;-82
2023/02/23 01:36:19;;;;;;;;;;;;;;;9.51;nan;100178.97;4975319;28;19935;-81
2023/02/23 01:38:45;;;;;;;;;;;;;;;9.51;nan;100176.34;4990056;28;20082;-82
2023/02/23 01:41:10;;;;;;;;;;;;;;;9.50;nan;100171.19;4981991;28;19918;-83
2023/02/23 01:43:54;;;;;;;;;;;;;;;9.47;nan;100169.69;4988051;28;19990;-84
2023/02/23 01:46:19;;;;;;;;;;;;;;;9.45;nan;100174.28;4974803;28;19957;-84
2023/02/23 01:48:44;;;;;;;;;;;;;;;9.44;nan;100172.66;4971175;28;20003;-81
2023/02/23 01:51:12;;;;;;;;;;;;;;;9.43;nan;100168.34;4989625;28;20393;-82
2023/02/23 01:53:47;;;;;;;;;;;;;;;9.42;nan;100166.69;4994272;28;19928;-82
2023/02/23 01:56:17;;;;;;;;;;;;;;;9.41;nan;100170.28;4990746;28;20008;-81
2023/02/23 01:58:50;;;;;;;;;;;;;;;9.39;nan;100163.50;4992734;28;19940;-83
2023/02/23 02:01:16;;;;;;;;;;;;;;;9.39;nan;100164.38;4976428;28;19918;-81
2023/02/23 02:03:43;;;;;;;;;;;;;;;9.38;nan;100165.34;4995826;28;20130;-84
2023/02/23 02:06:12;;;;;;;;;;;;;;;9.40;nan;100159.91;4985799;28;19917;-83
2023/02/23 02:08:43;;;;;;;;;;;;;;;9.38;nan;100165.34;4989819;28;19922;-80
2023/02/23 02:11:24;;;;;;;;;;;;;;;9.39;nan;100164.38;4990626;28;19925;-82
2023/02/23 02:13:51;;;;;;;;;;;;;;;9.39;nan;100160.88;4972325;28;20456;-83
2023/02/23 02:16:27;;;;;;;;;;;;;;;9.35;nan;100160.38;4972978;28;19964;-82
2023/02/23 02:19:04;;;;;;;;;;;;;;;9.35;nan;100160.38;4987139;28;19957;-83
2023/02/23 02:21:34;;;;;;;;;;;;;;;9.32;nan;100158.88;4972244;28;20366;-83
2023/02/23 02:24:08;;;;;;;;;;;;;;;9.33;nan;100154.41;4985435;28;20368;-83
2023/02/23 02:26:33;;;;;;;;;;;;;;;9.33;nan;100149.13;4992280;28;19924;-82
2023/02/23 02:29:02;;;;;;;;;;;;;;;9.33;nan;100149.97;4991981;28;20454;-82
2023/02/23 02:31:41;;;;;;;;;;;;;;;9.32;nan;100153.59;4999283;28;19980;-82
2023/02/23 02:34:24;;;;;;;;;;;;;;;9.34;nan;100158.69;4993811;28;19917;-84
2023/02/23 02:37:08;;;;;;;;;;;;;;;9.32;nan;100147.50;4994703;28;20019;-80
2023/02/23 02:39:45;;;;;;;;;;;;;;;9.33;nan;100149.13;4992194;28;19918;-81
2023/02/23 02:42:25;;;;;;;;;;;;;;;9.33;nan;100143.84;4977408;28;20075;-82
2023/02/23 02:44:56;;;;;;;;;;;;;;;9.32;nan;100145.69;4977040;28;20013;-84
2023/02/23 02:47:24;;;;;;;;;;;;;;;9.31;nan;100140.53;4982575;28;20218;-82
2023/02/23 02:49:52;;;;;;;;;;;;;;;9.32;nan;100144.84;4988551;28;19933;-81
2023/02/23 02:52:22;;;;;;;;;;;;;;;9.35;nan;100136.63;4987629;28;20287;-83
2023/02/23 02:54:52;;;;;;;;;;;;;;;9.33;nan;100135.94;4968713;28;20213;-83
2023/02/23 02:57:18;;;;;;;;;;;;;;;9.35;nan;100137.44;4988611;28;19977;-82
2023/02/23 04:18:19;;;;;;;;;;;;;;;9.54;nan;100131.16;4996307;28;19925;-81
2023/02/23 04:20:44;;;;;;;;;;;;;;;9.53;nan;100132.16;4978457;28;19984;-82
2023/02/23 04:23:10;;;;;;;;;;;;;;;9.56;nan;100133.66;4994013;28;20379;-81
2023/02/23 04:25:35;;;;;;;;;;;;;;;9.56;nan;100134.47;4991207;28;19937;-82
2023/02/23 04:28:00;;;;;;;;;;;;;;;9.59;nan;100135.97;4995632;28;19917;-82
2023/02/23 04:30:27;;;;;;;;;;;;;;;9.58;nan;100139.56;4995179;28;19925;-82
2023/02/23 04:32:52;;;;;;;;;;;;;;;9.61;nan;100135.81;4993239;28;20053;-81
2023/02/23 04:35:17;;;;;;;;;;;;;;;9.62;nan;100142.75;4988887;28;19950;-82
2023/02/23 04:37:43;;;;;;;;;;;;;;;9.65;nan;100143.25;4991578;28;19925;-81
2023/02/23 04:40:08;;;;;;;;;;;;;;;9.66;nan;100142.28;4973985;28;20005;-81
2023/02/23 04:42:33;;;;;;;;;;;;;;;9.66;nan;100141.47;4990518;28;19924;-81
2023/02/23 04:44:58;;;;;;;;;;;;;;;9.67;nan;100141.28;4972829;28;19925;-81
2023/02/23 04:47:24;;;;;;;;;;;;;;;9.69;nan;100141.13;4973155;28;20004;-81
2023/02/23 04:49:49;;;;;;;;;;;;;;;9.68;nan;100142.13;4988894;28;19922;-81
2023/02/23 04:52:14;;;;;;;;;;;;;;;9.68;nan;100142.13;4990229;28;20435;-83
2023/02/23 04:54:40;;;;;;;;;;;;;;;9.67;nan;100148.38;4988640;28;19925;-82
2023/02/23 04:57:05;;;;;;;;;;;;;;;9.68;nan;100145.59;4985997;28;20383;-82
2023/02/23 04:59:31;;;;;;;;;;;;;;;9.67;nan;100146.56;4986601;28;20016;-81
2023/02/23 05:01:56;;;;;;;;;;;;;;;9.66;nan;100144.91;4989301;28;19918;-81
2023/02/23 05:04:21;;;;;;;;;;;;;;;9.66;nan;100152.84;4991101;28;19925;-82
2023/02/23 05:06:47;;;;;;;;;;;;;;;9.66;nan;100155.47;4986929;28;19917;-83
2023/02/23 05:09:12;;;;;;;;;;;;;;;9.66;nan;100150.19;4988934;28;19925;-82
2023/02/23 05:11:37;;;;;;;;;;;;;;;9.68;nan;100157.97;4989493;28;20326;-81
2023/02/23 05:14:03;;;;;;;;;;;;;;;9.70;nan;100155.97;4991861;28;19918;-81
2023/02/23 05:16:28;;;;;;;;;;;;;;;9.65;nan;100159.09;4966428;28;20199;-82
2023/02/23 05:18:53;;;;;;;;;;;;;;;9.63;nan;100154.94;4995516;28;19957;-83
2023/02/23 05:21:19;;;;;;;;;;;;;;;9.63;nan;100157.59;4989558;28;19932;-84
2023/02/23 05:23:44;;;;;;;;;;;;;;;9.60;nan;100161.38;4973072;28;19918;-82
2023/02/23 05:26:10;;;;;;;;;;;;;;;9.61;nan;100159.56;4979615;28;19976;-82
2023/02/23 05:28:35;;;;;;;;;;;;;;;9.56;nan;100155.59;4986804;28;19924;-82
2023/02/23 05:31:02;;;;;;;;;;;;;;;9.55;nan;100148.63;4997764;28;20406;-82
2023/02/23 05:33:27;;;;;;;;;;;;;;;9.52;nan;100154.22;4975102;28;20324;-82
2023/02/23 05:35:52;;;;;;;;;;;;;;;9.52;nan;100148.13;4975563;28;19918;-82
2023/02/23 05:38:20;;;;;;;;;;;;;;;9.50;nan;100150.91;4993386;28;19918;-82
2023/02/23 05:40:45;;;;;;;;;;;;;;;9.48;nan;100155.50;4997842;28;19956;-82
2023/02/23 05:43:10;;;;;;;;;;;;;;;9.46;nan;100160.13;4972339;28;20598;-82
2023/02/23 05:45:39;;;;;;;;;;;;;;;9.46;nan;100160.13;4979519;28;19925;-82
2023/02/23 05:48:04;;;;;;;;;;;;;;;9.45;nan;100155.81;4973461;28;19917;-82
2023/02/23 05:50:29;;;;;;;;;;;;;;;9.46;nan;100160.13;4983356;28;19922;-81
2023/02/23 05:52:55;;;;;;;;;;;;;;;9.44;nan;100159.47;4985621;28;19953;-81
2023/02/23 05:55:20;;;;;;;;;;;;;;;9.46;nan;100165.41;4995722;28;19926;-81
2023/02/23 05:57:45;;;;;;;;;;;;;;;9.47;nan;100163.59;4994364;28;20363;-82
2023/02/23 06:00:12;;;;;;;;;;;;;;;9.45;nan;100157.63;4990083;28;19918;-82
2023/02/23 06:02:37;;;;;;;;;;;;;;;9.45;nan;100160.28;5000395;28;19918;-81
2023/02/23 06:05:04;;;;;;;;;;;;;;;9.44;nan;100159.47;4990678;28;19924;-81
2023/02/23 06:07:30;;;;;;;;;;;;;;;9.45;nan;100155.00;5000688;28;19976;-83
2023/02/23 06:09:55;;;;;;;;;;;;;;;9.46;nan;100154.84;4994640;28;19917;-82
2023/02/23 06:12:22;;;;;;;;;;;;;;;9.46;nan;100156.63;4999470;28;19922;-82
2023/02/23 06:14:47;;;;;;;;;;;;;;;9.47;nan;100167.06;4995343;28;19943;-83
2023/02/23 06:17:12;;;;;;;;;;;;;;;9.50;nan;100165.91;4981635;28;20037;-82
2023/02/23 06:19:37;;;;;;;;;;;;;;;9.50;nan;100166.75;4981111;28;20299;-83
2023/02/23 06:22:02;;;;;;;;;;;;;;;9.49;nan;100165.09;4983530;28;19924;-83
2023/02/23 06:24:27;;;;;;;;;;;;;;;9.51;nan;100168.41;4982391;28;20176;-83
2023/02/23 06:26:53;;;;;;;;;;;;;;;9.53;nan;100166.47;4993468;28;19925;-82
2023/02/23 06:29:18;;;;;;;;;;;;;;;9.56;nan;100170.59;4982377;28;20350;-83
2023/02/23 06:31:43;;;;;;;;;;;;;;;9.55;nan;100168.91;4985316;28;19945;-82
2023/02/23 06:34:09;;;;;;;;;;;;;;;9.56;nan;100171.41;5004036;28;19926;-82
2023/02/23 06:36:34;;;;;;;;;;;;;;;9.58;nan;100173.88;4996167;28;19918;-83
2023/02/23 06:38:59;;;;;;;;;;;;;;;9.57;nan;100183.63;5004836;28;19918;-83
2023/02/23 06:41:25;;;;;;;;;;;;;;;9.60;nan;100184.31;4984364;28;19925;-84
2023/02/23 06:43:50;;;;;;;;;;;;;;;9.61;nan;100183.34;4985800;28;20580;-82
2023/02/23 06:46:16;;;;;;;;;;;;;;;9.63;nan;100182.19;4995423;28;19918;-83
2023/02/23 06:48:41;;;;;;;;;;;;;;;9.65;nan;100190.75;4981685;28;19924;-83
2023/02/23 06:51:06;;;;;;;;;;;;;;;9.69;nan;100191.31;4977749;28;20319;-83
2023/02/23 06:53:32;;;;;;;;;;;;;;;9.70;nan;100185.03;4998666;28;19922;-83
2023/02/23 06:55:57;;;;;;;;;;;;;;;9.74;nan;100194.31;4993057;28;19926;-82
2023/02/23 06:58:22;;;;;;;;;;;;;;;9.76;nan;100197.63;4993430;28;19944;-82
2023/02/23 07:00:48;;;;;;;;;;;;;;;9.79;nan;100194.66;4988692;28;20291;-83
2023/02/23 07:03:13;;;;;;;;;;;;;;;9.81;nan;100200.63;4997326;28;19918;-82
2023/02/23 07:05:38;;;;;;;;;;;;;;;9.84;nan;100200.31;4982211;28;20319;-82
2023/02/23 07:08:04;;;;;;;;;;;;;;;9.86;nan;100198.34;4981397;28;20008;-82
2023/02/23 07:10:29;;;;;;;;;;;;;;;9.90;nan;100204.97;4996570;28;19929;-82
2023/02/23 07:12:54;;;;;;;;;;;;;;;9.95;nan;100212.44;4990619;28;19968;-83
2023/02/23 07:15:19;;;;;;;;;;;;;;;9.99;nan;100209.34;4994210;28;19926;-82
2023/02/23 07:17:47;;;;;;;;;;;;;;;10.03;nan;100207.19;4976626;28;19965;-81
2023/02/23 07:20:13;;;;;;;;;;;;;;;10.06;nan;100213.97;4992731;28;19917;-82
2023/02/23 07:22:38;;;;;;;;;;;;;;;10.06;nan;100216.63;4994793;28;20398;-83
2023/02/23 07:25:04;;;;;;;;;;;;;;;10.11;nan;100219.66;4996669;28;19929;-82
2023/02/23 07:27:29;;;;;;;;;;;;;;;10.13;nan;100220.28;4995240;28;20486;-82
2023/02/23 07:29:54;;;;;;;;;;;;;;;10.17;nan;100222.47;4977497;28;19914;-82
2023/02/23 07:32:19;;;;;;;;;;;;;;;10.15;nan;100215.69;4993291;28;19918;-82
2023/02/23 07:34:46;;;;;;;;;;;;;;;10.14;nan;100209.56;4991957;28;19980;-82
2023/02/23 07:37:11;;;;;;;;;;;;;;;10.15;nan;100218.31;4993565;28;20356;-81
2023/02/23 07:39:36;;;;;;;;;;;;;;;10.14;nan;100217.50;4983575;28;19925;-82
2023/02/23 07:42:02;;;;;;;;;;;;;;;10.15;nan;100219.19;4973008;28;19914;-83
2023/02/23 07:44:27;;;;;;;;;;;;;;;10.17;nan;100221.66;4988391;28;20045;-82
2023/02/23 07:46:53;;;;;;;;;;;;;;;10.19;nan;100227.59;4973556;28;19914;-83
2023/02/23 07:49:18;;;;;;;;;;;;;;;10.18;nan;100224.13;4972691;28;19921;-83
2023/02/23 07:51:43;;;;;;;;;;;;;;;10.18;nan;100218.84;4973489;28;19921;-82
2023/02/23 07:54:08;;;;;;;;;;;;;;;10.20;nan;100221.31;4973883;28;20000;-83
2023/02/23 07:56:34;;;;;;;;;;;;;;;10.21;nan;100225.63;4991147;28;19917;-83
2023/02/23 07:59:00;;;;;;;;;;;;;;;10.25;nan;100229.63;4992805;28;19914;-83
2023/02/23 08:01:25;;;;;;;;;;;;;;;10.29;nan;100224.88;4984781;28;19945;-83
2023/02/23 08:03:50;;;;;;;;;;;;;;;10.31;nan;100230.84;4994687;28;19920;-83
2023/02/23 08:06:16;;;;;;;;;;;;;;;10.35;nan;100230.38;4979321;28;20007;-84
2023/02/23 08:08:41;;;;;;;;;;;;;;;10.36;nan;100234.66;4983030;28;19969;-82
2023/02/23 08:11:07;;;;;;;;;;;;;;;10.40;nan;100232.53;4981883;28;19917;-82
2023/02/23 08:13:32;;;;;;;;;;;;;;;10.39;nan;100241.44;4998325;28;19941;-82
2023/02/23 08:15:58;;;;;;;;;;;;;;;10.40;nan;100236.00;4981102;28;20461;-83
2023/02/23 08:18:23;;;;;;;;;;;;;;;10.47;nan;100240.69;4980894;28;20057;-82
2023/02/23 08:20:49;;;;;;;;;;;;;;;10.49;nan;100238.72;4998080;28;19928;-83
2023/02/23 08:23:16;;;;;;;;;;;;;;;10.52;nan;100246.31;4982338;28;19920;-82
2023/02/23 08:25:42;;;;;;;;;;;;;;;10.55;nan;100243.34;4981498;28;19924;-82
2023/02/23 08:28:07;;;;;;;;;;;;;;;10.58;nan;100246.50;4998387;28;19985;-83
2023/02/23 08:30:32;;;;;;;;;;;;;;;10.60;nan;100244.50;4981394;28;20367;-83
2023/02/23 08:32:58;;;;;;;;;;;;;;;10.62;nan;100247.84;4981248;28;19917;-82
2023/02/23 08:35:23;;;;;;;;;;;;;;;10.63;nan;100246.88;4998641;28;19918;-84
2023/02/23 08:37:48;;;;;;;;;;;;;;;10.62;nan;100254.94;4998941;28;19921;-83
2023/02/23 08:40:14;;;;;;;;;;;;;;;10.64;nan;100255.63;4981758;28;19913;-84
2023/02/23 08:42:40;;;;;;;;;;;;;;;10.67;nan;100255.28;4980893;28;19925;-83
2023/02/23 08:45:05;;;;;;;;;;;;;;;10.69;nan;100257.78;4999651;28;19924;-84
2023/02/23 08:47:33;;;;;;;;;;;;;;;10.70;nan;100251.50;4989209;28;19944;-83
2023/02/23 08:49:58;;;;;;;;;;;;;;;10.75;nan;100258.00;4999746;28;20008;-83
2023/02/23 08:52:24;;;;;;;;;;;;;;;10.80;nan;100257.50;4998533;28;19960;-83
2023/02/23 08:54:49;;;;;;;;;;;;;;;10.88;nan;100254.06;4998698;28;19992;-82
2023/02/23 08:57:14;;;;;;;;;;;;;;;10.94;nan;100250.75;4998588;28;19918;-83
2023/02/23 08:59:40;;;;;;;;;;;;;;;10.98;nan;100260.84;4980869;28;19913;-83
2023/02/23 09:02:07;;;;;;;;;;;;;;;11.03;nan;100261.19;4980703;28;19918;-82
2023/02/23 09:04:34;;;;;;;;;;;;;;;11.10;nan;100260.56;4998221;28;19914;-83
2023/02/23 09:06:59;;;;;;;;;;;;;;;11.16;nan;100255.44;4998886;28;19928;-83
2023/02/23 09:09:24;;;;;;;;;;;;;;;11.22;nan;100257.44;4999740;28;19914;-83
2023/02/23 09:11:49;;;;;;;;;;;;;;;11.24;nan;100258.09;5003446;28;19987;-84
2023/02/23 09:14:14;;;;;;;;;;;;;;;11.31;nan;100260.13;5000309;28;19918;-83
2023/02/23 09:16:40;;;;;;;;;;;;;;;11.43;nan;100264.91;5000429;28;19914;-83
2023/02/23 09:19:05;;;;;;;;;;;;;;;11.56;nan;100261.81;4982689;28;19928;-83
2023/02/23 09:21:33;;;;;;;;;;;;;;;11.57;nan;100260.81;5000056;28;20142;-83
2023/02/23 09:23:58;;;;;;;;;;;;;;;11.62;nan;100263.78;4997103;28;19918;-83
2023/02/23 09:26:25;;;;;;;;;;;;;;;11.55;nan;100260.13;4985288;28;20165;-83
2023/02/23 09:28:50;;;;;;;;;;;;;;;11.52;nan;100268.41;4984343;28;19921;-83
2023/02/23 09:31:16;;;;;;;;;;;;;;;11.60;nan;100265.75;4993629;28;19973;-84
2023/02/23 09:33:42;;;;;;;;;;;;;;;11.74;nan;100263.47;5003248;28;19921;-83
2023/02/23 09:36:11;;;;;;;;;;;;;;;11.77;nan;100271.88;4989910;28;20020;-83
2023/02/23 09:38:37;;;;;;;;;;;;;;;11.93;nan;100270.28;5012080;28;19914;-84
2023/02/23 09:41:06;;;;;;;;;;;;;;;11.96;nan;100272.56;5013863;28;19944;-84
2023/02/23 09:43:39;;;;;;;;;;;;;;;12.05;nan;100274.22;4991372;28;19928;-83
2023/02/23 09:46:13;;;;;;;;;;;;;;;12.19;nan;100278.03;5003198;28;19945;-84
2023/02/23 09:48:38;;;;;;;;;;;;;;;12.24;nan;100267.75;5003899;28;19914;-83
2023/02/23 09:51:05;;;;;;;;;;;;;;;12.32;nan;100278.31;5001342;28;19917;-83
2023/02/23 09:53:30;;;;;;;;;;;;;;;12.33;nan;100272.84;5003692;28;19921;-84
2023/02/23 09:55:57;;;;;;;;;;;;;;;12.36;nan;100274.34;4985220;28;19914;-83
2023/02/23 09:58:26;;;;;;;;;;;;;;;12.45;nan;100270.66;4985182;28;19917;-84
2023/02/23 10:01:04;;;;;;;;;;;;;;;12.59;nan;100270.97;5003881;28;19953;-84
2023/02/23 10:03:30;;;;;;;;;;;;;;;12.77;nan;100271.53;5003995;28;19917;-84
2023/02/23 10:06:00;;;;;;;;;;;;;;;12.87;nan;100272.19;5004640;28;20315;-83
2023/02/23 10:08:25;;;;;;;;;;;;;;;13.16;nan;100273.38;4987628;28;19944;-82
2023/02/23 10:11:01;;;;;;;;;;;;;;;13.40;nan;100282.22;4987657;28;20416;-84
2023/02/23 10:13:40;;;;;;;;;;;;;;;13.59;nan;100281.75;4984338;28;19918;-83
2023/02/23 10:16:11;;;;;;;;;;;;;;;13.80;nan;100281.09;5002656;28;19914;-83
2023/02/23 10:18:39;;;;;;;;;;;;;;;13.97;nan;100279.94;4983695;28;20336;-83
2023/02/23 10:21:07;;;;;;;;;;;;;;;13.89;nan;100274.66;4995922;28;19967;-84
2023/02/23 10:23:35;;;;;;;;;;;;;;;13.90;nan;100286.97;4979346;28;19921;-84
2023/02/23 10:26:02;;;;;;;;;;;;;;;13.88;nan;100281.00;4999421;28;19927;-84
2023/02/23 10:28:32;;;;;;;;;;;;;;;14.06;nan;100279.84;4999221;28;19913;-85
2023/02/23 10:30:57;;;;;;;;;;;;;;;14.23;nan;100284.03;5001061;28;20276;-83
2023/02/23 10:33:25;;;;;;;;;;;;;;;14.12;nan;100279.13;4998368;28;19918;-83
2023/02/23 10:35:56;;;;;;;;;;;;;;;14.25;nan;100287.31;5005283;28;19913;-85
2023/02/23 10:38:21;;;;;;;;;;;;;;;14.57;nan;100288.84;4985382;28;19918;-85
2023/02/23 10:40:49;;;;;;;;;;;;;;;14.53;nan;100286.69;4978171;28;19924;-83
2023/02/23 10:43:15;;;;;;;;;;;;;;;14.55;nan;100290.03;4993071;28;19996;-84
2023/02/23 10:45:43;;;;;;;;;;;;;;;14.71;nan;100284.53;4975994;28;19968;-84
2023/02/23 10:48:15;;;;;;;;;;;;;;;14.72;nan;100288.00;4994361;28;19917;-85
2023/02/23 10:50:41;;;;;;;;;;;;;;;14.65;nan;100293.22;4997399;28;19976;-84
2023/02/23 10:53:21;;;;;;;;;;;;;;;15.15;nan;100288.94;4976061;28;20287;-84
2023/02/23 10:55:58;;;;;;;;;;;;;;;15.60;nan;100292.28;4973438;28;19954;-84
2023/02/23 10:58:23;;;;;;;;;;;;;;;15.82;nan;100286.97;4969456;28;19940;-85
2023/02/23 11:00:50;;;;;;;;;;;;;;;16.77;nan;100285.56;4992889;28;20417;-83
2023/02/23 11:03:35;;;;;;;;;;;;;;;17.66;nan;100287.28;4995307;28;20285;-84
2023/02/23 11:06:00;;;;;;;;;;;;;;;17.76;nan;100289.56;4959671;28;19913;-85
2023/02/23 11:08:28;;;;;;;;;;;;;;;17.56;nan;100287.69;4968498;28;20162;-85
2023/02/23 11:10:54;;;;;;;;;;;;;;;17.24;nan;100289.25;4972229;28;19913;-83
2023/02/23 11:13:20;;;;;;;;;;;;;;;17.06;nan;100278.31;4976676;28;19921;-84
2023/02/23 11:15:45;;;;;;;;;;;;;;;16.69;nan;100278.53;4977288;28;19917;-84
2023/02/23 11:18:21;;;;;;;;;;;;;;;16.39;nan;100282.47;4991201;28;19920;-85
2023/02/23 11:20:47;;;;;;;;;;;;;;;16.22;nan;100290.78;4992466;28;20358;-84
2023/02/23 11:23:30;;;;;;;;;;;;;;;16.05;nan;100281.44;4971239;28;19918;-84
2023/02/23 11:26:15;;;;;;;;;;;;;;;15.74;nan;100281.78;4974996;28;20433;-84
2023/02/23 11:28:41;;;;;;;;;;;;;;;15.38;nan;100274.66;4953905;28;20041;-84
2023/02/23 11:31:15;;;;;;;;;;;;;;;15.25;nan;100275.31;4990093;28;19972;-85
2023/02/23 11:33:41;;;;;;;;;;;;;;;15.80;nan;100268.53;4973645;28;19918;-85
2023/02/23 11:36:24;;;;;;;;;;;;;;;17.09;nan;100270.72;4984529;28;20363;-83
2023/02/23 11:39:00;;;;;;;;;;;;;;;17.50;nan;100272.47;4988901;28;19925;-85
2023/02/23 11:41:25;;;;;;;;;;;;;;;17.08;nan;100269.06;4991072;28;20346;-85
2023/02/23 11:43:51;;;;;;;;;;;;;;;16.63;nan;100263.31;4973024;28;19914;-84
2023/02/23 11:46:18;;;;;;;;;;;;;;;16.35;nan;100264.19;4965467;28;19956;-85
2023/02/23 11:48:58;;;;;;;;;;;;;;;15.95;nan;100263.09;4991419;28;19920;-82
2023/02/23 11:51:37;;;;;;;;;;;;;;;15.84;nan;100261.75;4988994;28;19943;-84
2023/02/23 11:54:03;;;;;;;;;;;;;;;16.00;nan;100258.00;4983569;28;19922;-85
2023/02/23 11:56:30;;;;;;;;;;;;;;;16.57;nan;100261.44;4984921;28;19914;-85
2023/02/23 11:59:00;;;;;;;;;;;;;;;17.02;nan;100251.19;5002706;28;19948;-84
2023/02/23 12:01:40;;;;;;;;;;;;;;;17.51;nan;100247.38;5001552;28;20020;-84
2023/02/23 12:04:06;;;;;;;;;;;;;;;17.33;nan;100249.84;4993936;28;20014;-83
2023/02/23 12:06:31;;;;;;;;;;;;;;;17.80;nan;100237.31;4991928;28;19954;-84
2023/02/23 12:09:03;;;;;;;;;;;;;;;17.91;nan;100238.56;4991487;28;19949;-83
2023/02/23 12:11:31;;;;;;;;;;;;;;;17.90;nan;100237.75;5000804;28;19922;-83
2023/02/23 12:14:06;;;;;;;;;;;;;;;17.78;nan;100237.53;5000968;28;19945;-84
2023/02/23 12:16:34;;;;;;;;;;;;;;;17.59;nan;100233.81;5000310;28;20030;-83
2023/02/23 12:18:59;;;;;;;;;;;;;;;17.39;nan;100231.09;5000919;28;19926;-84
2023/02/23 12:21:37;;;;;;;;;;;;;;;17.38;nan;100234.81;4986132;28;19929;-83
2023/02/23 12:24:08;;;;;;;;;;;;;;;16.93;nan;100231.84;4973839;28;19998;-84
2023/02/23 12:26:43;;;;;;;;;;;;;;;16.94;nan;100227.31;4984638;28;19914;-86
2023/02/23 12:29:17;;;;;;;;;;;;;;;17.09;nan;100225.31;4999992;28;20353;-84
2023/02/23 12:31:46;;;;;;;;;;;;;;;16.85;nan;100223.16;4998045;28;19914;-85
2023/02/23 12:34:16;;;;;;;;;;;;;;;16.50;nan;100209.88;4979696;28;20339;-86
2023/02/23 12:36:45;;;;;;;;;;;;;;;16.61;nan;100214.63;4999676;28;19922;-86
2023/02/23 12:39:23;;;;;;;;;;;;;;;16.86;nan;100217.63;4983758;28;19989;-87
2023/02/23 12:42:00;;;;;;;;;;;;;;;16.97;nan;100209.06;5001976;28;19941;-87
2023/02/23 12:44:38;;;;;;;;;;;;;;;16.79;nan;100210.63;4982184;28;19940;-86
2023/02/23 12:47:27;;;;;;;;;;;;;;;16.76;nan;100209.97;4996517;28;19916;-86
2023/02/23 12:50:12;;;;;;;;;;;;;;;16.68;nan;100212.00;4979396;28;19921;-87
2023/02/23 12:52:43;;;;;;;;;;;;;;;16.48;nan;100209.25;4988921;28;20064;-87
2023/02/23 12:55:12;;;;;;;;;;;;;;;16.41;nan;100208.38;4978789;28;19920;-86
2023/02/23 12:57:57;;;;;;;;;;;;;;;16.25;nan;100210.34;4993534;28;19913;-87
2023/02/23 13:00:32;;;;;;;;;;;;;;;16.02;nan;100212.47;4988416;28;19925;-87
2023/02/23 13:03:12;;;;;;;;;;;;;;;15.68;nan;100200.69;4993721;28;19941;-87
2023/02/23 13:05:40;;;;;;;;;;;;;;;15.46;nan;100205.22;4960663;28;19914;-86
2023/02/23 13:08:19;;;;;;;;;;;;;;;15.11;nan;100202.47;4988068;28;19924;-87
2023/02/23 13:11:03;;;;;;;;;;;;;;;14.93;nan;100202.88;4997308;28;19921;-87
2023/02/23 13:13:40;;;;;;;;;;;;;;;14.76;nan;100210.25;4990389;28;19922;-88
2023/02/23 13:16:06;;;;;;;;;;;;;;;14.83;nan;100203.19;4961258;28;19917;-87
2023/02/23 13:18:35;;;;;;;;;;;;;;;14.69;nan;100213.84;4962431;28;19914;-87
2023/02/23 13:21:12;;;;;;;;;;;;;;;14.68;nan;100207.69;4980972;28;19998;-88
2023/02/23 13:23:48;;;;;;;;;;;;;;;14.75;nan;100210.44;4979956;28;19956;-86
2023/02/23 13:26:20;;;;;;;;;;;;;;;14.82;nan;100203.34;4976902;28;19921;-87
2023/02/23 13:28:55;;;;;;;;;;;;;;;14.77;nan;100208.41;4959682;28;19914;-86
2023/02/23 13:31:37;;;;;;;;;;;;;;;14.73;nan;100207.97;4963317;28;19914;-87
2023/02/23 13:34:05;;;;;;;;;;;;;;;14.77;nan;100203.09;4976925;28;19973;-86
2023/02/23 13:36:32;;;;;;;;;;;;;;;14.70;nan;100203.00;4993800;28;19993;-87
2023/02/23 13:39:29;;;;;;;;;;;;;;;14.63;nan;100196.78;4977562;28;19913;-87
2023/02/23 13:42:00;;;;;;;;;;;;;;;14.74;nan;100203.47;4985167;28;19922;-87
2023/02/23 13:44:31;;;;;;;;;;;;;;;14.64;nan;100201.94;4976637;28;20492;-87
2023/02/23 13:47:19;;;;;;;;;;;;;;;14.59;nan;100206.16;4996135;28;19913;-87
2023/02/23 13:49:53;;;;;;;;;;;;;;;14.43;nan;100202.66;4980244;28;19964;-86
2023/02/23 13:52:30;;;;;;;;;;;;;;;14.30;nan;100199.84;4963159;28;19918;-86
2023/02/23 13:55:02;;;;;;;;;;;;;;;14.13;nan;100206.31;4977144;28;19925;-87
2023/02/23 13:57:27;;;;;;;;;;;;;;;14.21;nan;100196.44;4981303;28;19976;-87
2023/02/23 13:59:53;;;;;;;;;;;;;;;14.21;nan;100201.75;4998427;28;20371;-87
2023/02/23 14:02:18;;;;;;;;;;;;;;;14.22;nan;100206.03;4961231;28;20335;-86
2023/02/23 14:04:43;;;;;;;;;;;;;;;14.17;nan;100207.63;4992478;28;20036;-86
2023/02/23 14:07:08;;;;;;;;;;;;;;;14.21;nan;100207.06;4995974;28;19929;-86
2023/02/23 14:09:35;;;;;;;;;;;;;;;14.25;nan;100199.53;4974984;28;19938;-87
2023/02/23 14:12:03;;;;;;;;;;;;;;;14.26;nan;100209.19;4977201;28;19918;-87
2023/02/23 14:14:31;;;;;;;;;;;;;;;14.31;nan;100198.81;4992642;28;19917;-88
2023/02/23 14:17:18;;;;;;;;;;;;;;;14.36;nan;100203.59;4980387;28;19957;-87
2023/02/23 14:19:55;;;;;;;;;;;;;;;14.49;nan;100198.44;4974502;28;20024;-86
2023/02/23 14:22:21;;;;;;;;;;;;;;;14.49;nan;100202.91;4976211;28;20026;-87
2023/02/23 14:24:46;;;;;;;;;;;;;;;14.45;nan;100192.66;4981389;28;19941;-87
2023/02/23 14:27:14;;;;;;;;;;;;;;;14.34;nan;100194.97;4997923;28;19927;-87